createdAt,value
2019-05-01T00:01:05.249Z,33.53
2019-05-01T00:03:38.592Z,35.20
2019-05-01T00:06:30.880Z,33.50
2019-05-01T00:08:59.323Z,43.20
2019-05-01T00:11:27.875Z,35.13
2019-05-01T00:13:56.579Z,37.57
2019-05-01T00:16:44.523Z,32.60
2019-05-01T00:19:13.095Z,33.97
2019-05-01T00:21:44.258Z,37.07
2019-05-01T00:24:12.724Z,35.43
2019-05-01T00:26:47.062Z,36.27
2019-05-01T00:29:15.588Z,36.07
2019-05-01T00:31:44.032Z,32.67
2019-05-01T00:34:21.432Z,38.40
2019-05-01T00:37:09.208Z,40.87
2019-05-01T00:39:37.678Z,40.60
2019-05-01T00:42:06.194Z,37.70
2019-05-01T00:44:53.992Z,36.27
2019-05-01T00:47:22.447Z,38.07
2019-05-01T00:49:50.888Z,37.37
2019-05-01T00:52:38.755Z,36.10
2019-05-01T00:55:26.104Z,36.63
2019-05-01T00:57:56.355Z,36.50
2019-05-01T01:00:43.460Z,40.00
2019-05-01T01:03:12.150Z,38.50
2019-05-01T01:05:40.656Z,42.73
2019-05-01T01:08:09.149Z,38.23
2019-05-01T01:10:37.634Z,39.80
2019-05-01T01:13:06.071Z,38.03
2019-05-01T01:15:34.523Z,40.97
2019-05-01T01:18:03.036Z,40.97
2019-05-01T01:20:31.589Z,40.13
2019-05-01T01:23:00.161Z,37.50
2019-05-01T01:25:28.691Z,39.93
2019-05-01T01:27:57.137Z,43.17
2019-05-01T01:30:25.738Z,41.93
2019-05-01T01:32:54.242Z,40.83
2019-05-01T01:35:22.690Z,43.83
2019-05-01T01:37:51.163Z,38.50
2019-05-01T01:40:19.664Z,42.70
2019-05-01T01:42:50.209Z,42.83
2019-05-01T01:45:31.968Z,43.93
2019-05-01T01:48:10.668Z,44.40
2019-05-01T01:50:42.152Z,42.87
2019-05-01T01:53:30.084Z,39.07
2019-05-01T01:55:58.629Z,44.20
2019-05-01T01:58:27.439Z,40.77
2019-05-01T02:01:09.238Z,46.40
2019-05-01T02:03:48.809Z,45.17
2019-05-01T02:06:17.407Z,44.57
2019-05-01T02:08:56.030Z,42.23
2019-05-01T02:11:16.495Z,41.77
2019-05-01T02:13:45.088Z,39.17
2019-05-01T02:16:13.555Z,45.30
2019-05-01T02:18:42.060Z,47.17
2019-05-01T02:21:10.548Z,41.87
2019-05-01T02:23:38.987Z,37.30
2019-05-01T02:26:09.551Z,45.80
2019-05-01T02:28:58.336Z,49.80
2019-05-01T02:31:29.708Z,48.03
2019-05-01T02:34:00.264Z,44.87
2019-05-01T02:36:29.562Z,47.50
2019-05-01T02:38:59.543Z,43.73
2019-05-01T02:41:31.127Z,47.60
2019-05-01T02:44:02.758Z,51.50
2019-05-01T02:46:33.208Z,51.70
2019-05-01T02:49:07.645Z,46.30
2019-05-01T02:51:39.159Z,52.57
2019-05-01T02:54:08.846Z,53.83
2019-05-01T02:56:55.537Z,43.10
2019-05-01T02:59:26.827Z,43.07
2019-05-01T03:01:55.899Z,49.90
2019-05-01T03:04:24.498Z,50.13
2019-05-01T03:06:53.571Z,52.83
2019-05-01T03:09:22.762Z,54.43
2019-05-01T03:11:54.108Z,51.43
2019-05-01T03:14:43.452Z,56.80
2019-05-01T03:17:30.697Z,55.37
2019-05-01T03:20:01.429Z,53.40
2019-05-01T03:22:47.389Z,45.67
2019-05-01T03:25:16.285Z,57.27
2019-05-01T03:27:44.863Z,50.03
2019-05-01T03:30:13.476Z,51.70
2019-05-01T03:32:42.051Z,54.03
2019-05-01T03:35:10.624Z,56.70
2019-05-01T03:37:39.323Z,57.43
2019-05-01T03:40:11.930Z,53.20
2019-05-01T03:42:38.534Z,56.60
2019-05-01T03:45:07.267Z,57.13
2019-05-01T03:47:35.856Z,54.60
2019-05-01T03:50:05.627Z,51.33
2019-05-01T03:52:34.599Z,56.00
2019-05-01T03:55:03.112Z,45.83
2019-05-01T03:57:32.057Z,57.33
2019-05-01T04:00:01.293Z,53.37
2019-05-01T04:02:37.171Z,54.60
2019-05-01T04:05:06.241Z,50.70
2019-05-01T04:07:36.434Z,48.60
2019-05-01T04:10:07.307Z,51.10
2019-05-01T04:12:36.299Z,48.27
2019-05-01T04:15:06.037Z,49.03
2019-05-01T04:17:39.105Z,59.17
2019-05-01T04:20:07.933Z,52.23
2019-05-01T04:22:36.448Z,49.97
2019-05-01T04:25:06.564Z,49.97
2019-05-01T04:27:36.748Z,53.07
2019-05-01T04:30:10.581Z,56.90
2019-05-01T04:32:51.866Z,66.00
2019-05-01T04:35:23.829Z,74.37
2019-05-01T04:37:52.945Z,68.90
2019-05-01T04:40:21.820Z,73.13
2019-05-01T04:42:50.495Z,89.97
2019-05-01T04:45:19.699Z,93.87
2019-05-01T04:47:48.574Z,99.57
2019-05-01T04:50:17.265Z,103.53
2019-05-01T04:53:05.201Z,111.47
2019-05-01T04:55:33.704Z,102.37
2019-05-01T04:58:02.436Z,91.70
2019-05-01T05:00:30.946Z,105.77
2019-05-01T05:03:07.313Z,117.13
2019-05-01T05:05:36.200Z,114.20
2019-05-01T05:08:04.783Z,119.00
2019-05-01T05:10:33.764Z,115.20
2019-05-01T05:13:09.871Z,114.20
2019-05-01T05:15:56.092Z,104.27
2019-05-01T05:18:25.071Z,117.27
2019-05-01T05:20:53.604Z,117.77
2019-05-01T05:23:22.988Z,106.27
2019-05-01T05:25:52.262Z,122.73
2019-05-01T05:28:40.251Z,125.87
2019-05-01T05:31:10.143Z,124.20
2019-05-01T05:33:39.547Z,126.40
2019-05-01T05:36:11.364Z,122.03
2019-05-01T05:38:46.254Z,124.30
2019-05-01T05:41:15.427Z,122.30
2019-05-01T05:43:44.275Z,125.30
2019-05-01T05:46:13.151Z,113.40
2019-05-01T05:48:41.839Z,103.47
2019-05-01T05:51:15.152Z,107.00
2019-05-01T05:53:46.840Z,113.27
2019-05-01T05:56:25.947Z,117.50
2019-05-01T05:58:59.111Z,117.30
2019-05-01T06:01:40.808Z,114.47
2019-05-01T06:04:20.292Z,107.23
2019-05-01T06:07:17.224Z,113.77
2019-05-01T06:09:51.382Z,117.53
2019-05-01T06:12:41.658Z,96.90
2019-05-01T06:15:12.977Z,117.33
2019-05-01T06:17:48.987Z,113.73
2019-05-01T06:20:25.942Z,120.10
2019-05-01T06:23:10.677Z,111.73
2019-05-01T06:25:46.368Z,108.47
2019-05-01T06:28:15.275Z,109.10
2019-05-01T06:30:47.075Z,119.63
2019-05-01T06:33:14.043Z,123.40
2019-05-01T06:35:42.576Z,118.97
2019-05-01T06:38:16.441Z,131.70
2019-05-01T06:40:48.057Z,116.33
2019-05-01T06:43:25.408Z,125.53
2019-05-01T06:46:10.674Z,119.27
2019-05-01T06:48:42.732Z,109.30
2019-05-01T06:51:29.511Z,105.97
2019-05-01T06:53:58.091Z,98.63
2019-05-01T06:56:26.797Z,112.77
2019-05-01T06:58:56.371Z,100.10
2019-05-01T07:01:25.093Z,98.53
2019-05-01T07:04:03.427Z,107.60
2019-05-01T07:06:25.901Z,111.33
2019-05-01T07:08:54.980Z,101.70
2019-05-01T07:11:23.619Z,102.30
2019-05-01T07:13:52.082Z,102.80
2019-05-01T07:16:20.980Z,93.57
2019-05-01T07:18:50.627Z,108.73
2019-05-01T07:21:22.879Z,108.43
2019-05-01T07:23:52.148Z,104.57
2019-05-01T07:26:22.764Z,101.80
2019-05-01T07:28:52.338Z,95.03
2019-05-01T07:31:20.791Z,112.10
2019-05-01T07:33:51.209Z,109.57
2019-05-01T07:36:25.697Z,98.23
2019-05-01T07:39:14.636Z,106.37
2019-05-01T07:41:43.784Z,97.10
2019-05-01T07:44:14.133Z,86.70
2019-05-01T07:46:54.324Z,84.43
2019-05-01T07:49:29.467Z,92.80
2019-05-01T07:51:58.050Z,97.73
2019-05-01T07:54:26.643Z,93.60
2019-05-01T07:56:58.707Z,88.63
2019-05-01T07:59:27.471Z,88.87
2019-05-01T08:01:57.745Z,88.13
2019-05-01T08:04:35.934Z,90.63
2019-05-01T08:06:57.552Z,94.87
2019-05-01T08:09:27.240Z,76.47
2019-05-01T08:11:55.708Z,92.73
2019-05-01T08:14:24.270Z,90.43
2019-05-01T08:16:52.786Z,87.80
2019-05-01T08:19:25.850Z,87.73
2019-05-01T08:21:57.049Z,94.17
2019-05-01T08:24:26.239Z,106.17
2019-05-01T08:26:54.748Z,91.90
2019-05-01T08:29:30.288Z,87.87
2019-05-01T08:32:03.420Z,98.23
2019-05-01T08:34:32.355Z,88.20
2019-05-01T08:37:00.828Z,90.20
2019-05-01T08:39:29.329Z,91.03
2019-05-01T08:41:57.767Z,95.83
2019-05-01T08:44:29.525Z,87.57
2019-05-01T08:47:11.695Z,96.53
2019-05-01T08:49:49.153Z,91.37
2019-05-01T08:52:13.882Z,91.67
2019-05-01T08:54:42.295Z,93.33
2019-05-01T08:57:10.769Z,97.20
2019-05-01T08:59:39.307Z,99.30
2019-05-01T09:02:09.359Z,110.37
2019-05-01T09:04:38.061Z,85.97
2019-05-01T09:07:06.536Z,96.67
2019-05-01T09:09:39.983Z,97.67
2019-05-01T09:12:07.017Z,97.83
2019-05-01T09:14:36.867Z,91.73
2019-05-01T09:17:05.642Z,101.83
2019-05-01T09:19:34.150Z,101.30
2019-05-01T09:22:02.749Z,96.90
2019-05-01T09:24:37.404Z,95.00
2019-05-01T09:27:07.697Z,108.83
2019-05-01T09:29:51.126Z,84.20
2019-05-01T09:32:18.699Z,89.00
2019-05-01T09:34:58.422Z,99.17
2019-05-01T09:37:27.075Z,99.33
2019-05-01T09:39:55.583Z,97.50
2019-05-01T09:42:25.353Z,94.67
2019-05-01T09:44:54.044Z,101.30
2019-05-01T09:47:23.382Z,86.30
2019-05-01T09:49:54.070Z,112.50
2019-05-01T09:52:29.799Z,95.50
2019-05-01T09:55:08.537Z,100.13
2019-05-01T09:57:41.455Z,102.10
2019-05-01T10:00:10.414Z,92.10
2019-05-01T10:02:42.106Z,103.20
2019-05-01T10:05:09.471Z,114.17
2019-05-01T10:07:37.980Z,109.17
2019-05-01T10:10:07.960Z,106.60
2019-05-01T10:12:36.480Z,101.80
2019-05-01T10:15:07.347Z,102.40
2019-05-01T10:17:41.732Z,102.63
2019-05-01T10:20:29.643Z,109.63
2019-05-01T10:23:07.887Z,123.73
2019-05-01T10:25:35.988Z,101.70
2019-05-01T10:28:14.617Z,120.17
2019-05-01T10:30:43.913Z,112.00
2019-05-01T10:33:14.011Z,111.93
2019-05-01T10:36:00.726Z,119.13
2019-05-01T10:38:34.207Z,105.67
2019-05-01T10:41:04.166Z,110.80
2019-05-01T10:43:32.903Z,112.30
2019-05-01T10:46:01.379Z,103.43
2019-05-01T10:48:49.351Z,97.63
2019-05-01T10:51:17.951Z,98.47
2019-05-01T10:53:46.387Z,110.13
2019-05-01T10:56:34.208Z,103.53
2019-05-01T10:59:02.730Z,101.10
2019-05-01T11:01:38.709Z,102.07
2019-05-01T11:04:27.338Z,114.33
2019-05-01T11:06:55.871Z,135.50
2019-05-01T11:09:24.326Z,103.37
2019-05-01T11:11:52.922Z,100.67
2019-05-01T11:14:21.383Z,117.73
2019-05-01T11:16:49.844Z,114.20
2019-05-01T11:19:18.317Z,106.03
2019-05-01T11:21:46.829Z,113.80
2019-05-01T11:24:15.290Z,112.57
2019-05-01T11:26:43.736Z,103.90
2019-05-01T11:29:12.198Z,102.53
2019-05-01T11:32:01.619Z,98.87
2019-05-01T11:34:50.063Z,104.50
2019-05-01T11:37:34.995Z,97.07
2019-05-01T11:40:06.340Z,104.97
2019-05-01T11:42:54.119Z,106.77
2019-05-01T11:45:22.587Z,111.13
2019-05-01T11:47:51.029Z,98.13
2019-05-01T11:50:19.483Z,109.23
2019-05-01T11:52:47.947Z,110.63
2019-05-01T11:55:16.400Z,95.93
2019-05-01T11:57:45.059Z,100.37
2019-05-01T12:00:16.331Z,101.53
2019-05-01T12:02:44.918Z,100.23
2019-05-01T12:05:13.813Z,102.53
2019-05-01T12:07:42.258Z,115.50
2019-05-01T12:10:14.212Z,113.07
2019-05-01T12:12:41.533Z,115.60
2019-05-01T12:15:29.327Z,94.97
2019-05-01T12:17:57.844Z,109.77
2019-05-01T12:20:26.313Z,97.50
2019-05-01T12:22:54.988Z,94.73
2019-05-01T12:25:23.543Z,97.80
2019-05-01T12:27:52.181Z,106.63
2019-05-01T12:30:21.928Z,104.87
2019-05-01T12:32:51.527Z,101.40
2019-05-01T12:35:20.015Z,105.63
2019-05-01T12:37:52.006Z,87.30
2019-05-01T12:40:21.130Z,94.37
2019-05-01T12:42:49.736Z,108.23
2019-05-01T12:45:19.265Z,107.50
2019-05-01T12:47:52.229Z,106.70
2019-05-01T12:50:21.012Z,111.20
2019-05-01T12:53:07.729Z,98.87
2019-05-01T12:55:46.903Z,106.00
2019-05-01T12:58:22.076Z,108.63
2019-05-01T13:01:01.195Z,104.97
2019-05-01T13:03:30.102Z,107.63
2019-05-01T13:05:58.646Z,99.60
2019-05-01T13:08:46.501Z,104.10
2019-05-01T13:11:15.002Z,96.17
2019-05-01T13:13:43.747Z,102.80
2019-05-01T13:16:12.314Z,106.93
2019-05-01T13:18:40.779Z,110.90
2019-05-01T13:21:09.403Z,95.73
2019-05-01T13:23:38.694Z,101.63
2019-05-01T13:26:09.331Z,101.50
2019-05-01T13:28:48.984Z,94.13
2019-05-01T13:31:34.313Z,98.20
2019-05-01T13:34:07.129Z,93.70
2019-05-01T13:36:35.724Z,95.53
2019-05-01T13:39:06.915Z,98.73
2019-05-01T13:41:35.384Z,106.27
2019-05-01T13:44:04.168Z,101.30
2019-05-01T13:46:32.628Z,92.50
2019-05-01T13:49:07.439Z,101.57
2019-05-01T13:51:35.964Z,89.77
2019-05-01T13:54:06.453Z,93.17
2019-05-01T13:56:36.081Z,89.90
2019-05-01T13:59:06.231Z,78.23
2019-05-01T14:01:34.681Z,80.43
2019-05-01T14:04:03.215Z,76.80
2019-05-01T14:06:31.671Z,76.50
2019-05-01T14:09:00.465Z,72.03
2019-05-01T14:11:48.298Z,75.60
2019-05-01T14:14:17.787Z,68.80
2019-05-01T14:16:46.299Z,77.73
2019-05-01T14:19:17.746Z,73.60
2019-05-01T14:21:47.984Z,73.97
2019-05-01T14:24:22.889Z,85.17
2019-05-01T14:26:51.338Z,74.43
2019-05-01T14:29:19.911Z,72.30
2019-05-01T14:31:48.475Z,80.23
2019-05-01T14:34:16.948Z,66.90
2019-05-01T14:36:45.400Z,64.57
2019-05-01T14:39:15.547Z,64.27
2019-05-01T14:41:44.061Z,69.00
2019-05-01T14:44:12.526Z,64.17
2019-05-01T14:46:41.530Z,54.20
2019-05-01T14:49:10.223Z,62.97
2019-05-01T14:51:39.777Z,61.73
2019-05-01T14:54:08.215Z,76.63
2019-05-01T14:56:36.787Z,68.97
2019-05-01T14:59:05.512Z,68.70
2019-05-01T15:01:33.984Z,56.80
2019-05-01T15:04:02.616Z,66.03
2019-05-01T15:06:31.397Z,62.30
2019-05-01T15:09:00.095Z,59.77
2019-05-01T15:11:28.773Z,60.90
2019-05-01T15:13:58.852Z,59.30
2019-05-01T15:16:31.964Z,59.30
2019-05-01T15:19:07.778Z,61.10
2019-05-01T15:21:36.232Z,56.23
2019-05-01T15:24:05.521Z,59.10
2019-05-01T15:26:33.983Z,55.67
2019-05-01T15:29:03.489Z,60.53
2019-05-01T15:31:31.995Z,57.47
2019-05-01T15:34:00.529Z,55.03
2019-05-01T15:36:48.329Z,54.60
2019-05-01T15:39:33.804Z,54.83
2019-05-01T15:42:15.930Z,55.40
2019-05-01T15:44:44.571Z,62.07
2019-05-01T15:47:13.014Z,51.77
2019-05-01T15:50:00.810Z,55.73
2019-05-01T15:52:29.340Z,50.70
2019-05-01T15:54:57.863Z,50.03
2019-05-01T15:57:29.124Z,51.03
2019-05-01T15:59:57.652Z,50.60
2019-05-01T16:02:26.358Z,52.53
2019-05-01T16:04:54.800Z,49.93
2019-05-01T16:07:23.385Z,48.80
2019-05-01T16:09:52.080Z,47.90
2019-05-01T16:12:36.881Z,48.73
2019-05-01T16:15:09.497Z,50.67
2019-05-01T16:17:38.118Z,50.17
2019-05-01T16:20:08.103Z,51.07
2019-05-01T16:22:36.659Z,43.90
2019-05-01T16:25:06.616Z,52.83
2019-05-01T16:27:35.128Z,47.83
2019-05-01T16:30:05.183Z,44.20
2019-05-01T16:32:33.620Z,50.07
2019-05-01T16:35:02.109Z,47.23
2019-05-01T16:37:30.544Z,47.40
2019-05-01T16:40:00.660Z,51.13
2019-05-01T16:42:30.819Z,45.00
2019-05-01T16:44:59.523Z,51.10
2019-05-01T16:47:27.964Z,46.30
2019-05-01T16:49:56.424Z,50.10
2019-05-01T16:52:26.671Z,45.63
2019-05-01T16:54:59.356Z,43.17
2019-05-01T16:57:25.485Z,42.43
2019-05-01T16:59:54.013Z,49.80
2019-05-01T17:02:27.489Z,41.83
2019-05-01T17:05:14.328Z,44.53
2019-05-01T17:07:53.799Z,51.60
2019-05-01T17:10:33.103Z,53.70
2019-05-01T17:13:02.187Z,46.53
2019-05-01T17:15:32.563Z,45.83
2019-05-01T17:18:01.007Z,48.00
2019-05-01T17:20:30.100Z,45.27
2019-05-01T17:22:58.563Z,45.73
2019-05-01T17:25:29.434Z,47.67
2019-05-01T17:27:57.217Z,54.93
2019-05-01T17:30:40.114Z,47.40
2019-05-01T17:33:08.712Z,50.90
2019-05-01T17:35:41.857Z,62.77
2019-05-01T17:38:07.998Z,45.70
2019-05-01T17:40:36.499Z,50.77
2019-05-01T17:43:08.114Z,45.87
2019-05-01T17:45:36.761Z,69.43
2019-05-01T17:48:06.410Z,46.70
2019-05-01T17:50:34.871Z,46.60
2019-05-01T17:53:03.485Z,50.40
2019-05-01T17:55:32.114Z,54.73
2019-05-01T17:58:00.628Z,47.33
2019-05-01T18:00:33.619Z,48.57
2019-05-01T18:03:03.696Z,46.97
2019-05-01T18:05:33.792Z,47.17
2019-05-01T18:08:02.364Z,47.10
2019-05-01T18:10:33.997Z,53.33
2019-05-01T18:13:01.164Z,78.60
2019-05-01T18:15:29.692Z,45.83
2019-05-01T18:17:58.142Z,45.43
2019-05-01T18:20:26.604Z,51.33
2019-05-01T18:23:08.460Z,55.60
2019-05-01T18:25:55.307Z,58.63
2019-05-01T18:28:30.018Z,52.03
2019-05-01T18:30:56.769Z,48.57
2019-05-01T18:33:27.214Z,45.50
2019-05-01T18:35:57.503Z,49.40
2019-05-01T18:38:30.551Z,56.83
2019-05-01T18:41:12.494Z,50.43
2019-05-01T18:43:40.930Z,61.87
2019-05-01T18:46:11.092Z,50.77
2019-05-01T18:48:39.618Z,51.53
2019-05-01T18:51:08.309Z,47.93
2019-05-01T18:53:36.778Z,54.40
2019-05-01T18:56:06.748Z,56.63
2019-05-01T18:58:35.619Z,52.90
2019-05-01T19:01:08.793Z,48.90
2019-05-01T19:03:37.279Z,57.17
2019-05-01T19:06:05.028Z,55.97
2019-05-01T19:08:33.484Z,49.60
2019-05-01T19:11:12.169Z,52.10
2019-05-01T19:13:51.883Z,54.57
2019-05-01T19:16:20.392Z,61.37
2019-05-01T19:18:48.919Z,55.70
2019-05-01T19:21:18.931Z,52.00
2019-05-01T19:23:47.481Z,54.17
2019-05-01T19:26:16.847Z,57.30
2019-05-01T19:28:45.412Z,75.07
2019-05-01T19:31:14.008Z,83.23
2019-05-01T19:34:01.858Z,60.80
2019-05-01T19:36:45.105Z,59.53
2019-05-01T19:39:12.999Z,55.37
2019-05-01T19:41:48.910Z,63.03
2019-05-01T19:44:18.629Z,59.30
2019-05-01T19:46:44.280Z,63.80
2019-05-01T19:49:12.932Z,61.40
2019-05-01T19:51:41.558Z,57.57
2019-05-01T19:54:10.274Z,66.90
2019-05-01T19:56:38.742Z,59.70
2019-05-01T19:59:07.350Z,64.30
2019-05-01T20:01:38.451Z,73.67
2019-05-01T20:04:08.350Z,96.27
2019-05-01T20:06:38.583Z,63.73
2019-05-01T20:09:08.687Z,54.53
2019-05-01T20:11:37.225Z,58.87
2019-05-01T20:14:06.370Z,57.13
2019-05-01T20:16:35.135Z,59.40
2019-05-01T20:19:03.920Z,67.47
2019-05-01T20:21:33.432Z,70.57
2019-05-01T20:24:04.402Z,59.97
2019-05-01T20:26:34.013Z,64.53
2019-05-01T20:29:02.545Z,61.37
2019-05-01T20:31:32.896Z,67.33
2019-05-01T20:34:01.241Z,67.30
2019-05-01T20:36:29.869Z,59.70
2019-05-01T20:38:58.307Z,62.00
2019-05-01T20:41:26.874Z,60.90
2019-05-01T20:43:55.382Z,62.60
2019-05-01T20:46:25.960Z,88.23
2019-05-01T20:48:56.090Z,67.37
2019-05-01T20:51:25.304Z,66.63
2019-05-01T20:53:54.147Z,58.83
2019-05-01T20:56:40.118Z,60.13
2019-05-01T20:59:08.691Z,77.57
2019-05-01T21:01:37.307Z,63.77
2019-05-01T21:04:13.606Z,66.87
2019-05-01T21:06:46.536Z,65.13
2019-05-01T21:09:16.787Z,67.90
2019-05-01T21:11:49.678Z,70.90
2019-05-01T21:14:22.684Z,69.30
2019-05-01T21:16:48.408Z,72.63
2019-05-01T21:19:16.855Z,67.53
2019-05-01T21:21:45.390Z,69.03
2019-05-01T21:24:14.136Z,68.23
2019-05-01T21:26:43.400Z,64.63
2019-05-01T21:29:13.848Z,65.87
2019-05-01T21:31:44.065Z,75.20
2019-05-01T21:34:14.478Z,72.83
2019-05-01T21:36:42.682Z,67.67
2019-05-01T21:39:12.554Z,64.60
2019-05-01T21:41:43.182Z,70.30
2019-05-01T21:44:13.074Z,66.30
2019-05-01T21:46:43.199Z,64.40
2019-05-01T21:49:12.982Z,90.17
2019-05-01T21:51:45.916Z,66.07
2019-05-01T21:54:16.152Z,64.03
2019-05-01T21:56:42.864Z,71.40
2019-05-01T21:59:11.528Z,67.40
2019-05-01T22:01:40.052Z,74.73
2019-05-01T22:04:08.518Z,66.40
2019-05-01T22:06:36.962Z,72.83
2019-05-01T22:09:10.502Z,74.13
2019-05-01T22:11:39.008Z,69.50
2019-05-01T22:14:09.376Z,72.03
2019-05-01T22:16:37.815Z,84.30
2019-05-01T22:19:17.931Z,73.53
2019-05-01T22:22:03.275Z,69.70
2019-05-01T22:24:33.384Z,74.37
2019-05-01T22:27:20.008Z,67.83
2019-05-01T22:29:57.146Z,72.17
2019-05-01T22:32:27.682Z,64.53
2019-05-01T22:35:18.643Z,81.13
2019-05-01T22:37:47.224Z,70.43
2019-05-01T22:40:17.861Z,79.33
2019-05-01T22:42:46.316Z,77.97
2019-05-01T22:45:23.164Z,79.50
2019-05-01T22:47:52.160Z,74.97
2019-05-01T22:50:21.028Z,81.97
2019-05-01T22:52:49.475Z,77.50
2019-05-01T22:55:20.498Z,76.50
2019-05-01T22:57:48.099Z,90.53
2019-05-01T23:00:24.231Z,101.87
2019-05-01T23:02:52.879Z,85.97
2019-05-01T23:05:23.136Z,77.17
2019-05-01T23:08:10.916Z,83.57
2019-05-01T23:10:41.878Z,90.93
2019-05-01T23:13:09.804Z,79.07
2019-05-01T23:15:38.327Z,80.43
2019-05-01T23:18:10.649Z,126.60
2019-05-01T23:20:39.054Z,78.20
2019-05-01T23:23:07.320Z,100.67
2019-05-01T23:25:36.502Z,87.53
2019-05-01T23:28:06.599Z,84.30
2019-05-01T23:30:35.213Z,82.17
2019-05-01T23:33:03.800Z,85.60
2019-05-01T23:35:32.323Z,72.27
2019-05-01T23:38:00.782Z,87.50
2019-05-01T23:40:29.619Z,85.50
2019-05-01T23:42:58.075Z,82.33
2019-05-01T23:45:26.507Z,86.63
2019-05-01T23:47:54.975Z,79.03
2019-05-01T23:50:23.490Z,83.00
2019-05-01T23:52:51.936Z,78.70
2019-05-01T23:55:20.467Z,76.10
2019-05-01T23:57:48.900Z,74.93
